createdAt,value
2023-01-11T00:00:29.870Z,2.78
2023-01-11T00:02:58.233Z,2.80
2023-01-11T00:05:24.934Z,2.80
2023-01-11T00:07:51.918Z,3.00
2023-01-11T00:10:19.317Z,2.65
2023-01-11T00:12:46.693Z,2.70
2023-01-11T00:15:14.047Z,2.95
2023-01-11T00:17:41.511Z,2.78
2023-01-11T00:20:09.908Z,2.30
2023-01-11T00:22:36.964Z,2.80
2023-01-11T00:25:04.023Z,2.70
2023-01-11T00:27:30.873Z,2.58
2023-01-11T00:29:57.527Z,2.70
2023-01-11T00:32:24.205Z,3.05
2023-01-11T00:34:50.841Z,2.60
2023-01-11T00:37:17.425Z,2.42
2023-01-11T00:39:44.175Z,2.47
2023-01-11T00:42:30.682Z,2.50
2023-01-11T00:45:15.850Z,3.05
2023-01-11T00:47:57.703Z,2.67
2023-01-11T00:50:25.868Z,2.67
2023-01-11T00:52:52.793Z,2.63
2023-01-11T00:55:19.546Z,2.45
2023-01-11T00:57:46.149Z,2.30
2023-01-11T01:00:13.174Z,3.05
2023-01-11T01:02:40.516Z,2.53
2023-01-11T01:05:07.484Z,2.80
2023-01-11T01:07:34.114Z,2.55
2023-01-11T01:10:00.695Z,2.63
2023-01-11T01:12:46.530Z,2.85
2023-01-11T01:15:13.399Z,2.80
2023-01-11T01:17:40.041Z,3.00
2023-01-11T01:20:07.445Z,3.25
2023-01-11T01:22:34.346Z,2.92
2023-01-11T01:25:00.900Z,2.55
2023-01-11T01:27:27.764Z,3.03
2023-01-11T01:29:54.627Z,2.70
2023-01-11T01:32:21.524Z,2.75
2023-01-11T01:34:53.789Z,2.85
2023-01-11T01:37:20.453Z,2.60
2023-01-11T01:39:47.057Z,2.72
2023-01-11T01:42:20.134Z,2.83
2023-01-11T01:45:02.483Z,2.58
2023-01-11T01:47:38.626Z,2.60
2023-01-11T01:50:12.097Z,2.40
2023-01-11T01:52:38.927Z,2.72
2023-01-11T01:55:11.455Z,2.58
2023-01-11T01:57:41.703Z,2.85
2023-01-11T02:00:11.359Z,2.55
2023-01-11T02:02:40.981Z,2.70
2023-01-11T02:05:08.720Z,2.50
2023-01-11T02:07:38.698Z,2.55
2023-01-11T02:10:15.299Z,2.30
2023-01-11T02:13:12.171Z,2.22
2023-01-11T02:15:38.897Z,2.83
2023-01-11T02:18:11.773Z,2.50
2023-01-11T02:21:32.761Z,2.60
2023-01-11T02:24:21.075Z,2.53
2023-01-11T02:27:19.652Z,2.20
2023-01-11T02:32:31.537Z,2.30
2023-01-11T02:35:26.563Z,2.28
2023-01-11T02:38:19.133Z,2.30
2023-01-11T02:41:07.285Z,2.00
2023-01-11T02:44:07.756Z,2.15
2023-01-11T02:46:39.858Z,1.90
2023-01-11T02:49:21.683Z,2.00
2023-01-11T02:51:56.603Z,2.00
2023-01-11T02:54:24.577Z,1.80
2023-01-11T02:56:56.301Z,2.47
2023-01-11T02:59:28.102Z,2.28
2023-01-11T03:01:57.253Z,2.08
2023-01-11T03:04:28.501Z,1.67
2023-01-11T03:07:20.410Z,1.63
2023-01-11T03:10:01.803Z,1.90
2023-01-11T03:12:55.504Z,1.90
2023-01-11T03:15:22.036Z,2.00
2023-01-11T03:18:18.158Z,1.83
2023-01-11T03:20:55.860Z,1.90
2023-01-11T03:23:26.780Z,1.50
2023-01-11T03:27:01.361Z,1.80
2023-01-11T03:29:39.876Z,1.65
2023-01-11T03:32:21.062Z,1.50
2023-01-11T03:35:06.591Z,1.30
2023-01-11T03:37:59.440Z,1.50
2023-01-11T03:40:31.153Z,1.38
2023-01-11T03:43:12.320Z,1.30
2023-01-11T03:45:51.127Z,1.60
2023-01-11T03:48:22.532Z,1.30
2023-01-11T03:50:51.481Z,1.30
2023-01-11T03:53:20.865Z,1.40
2023-01-11T03:55:53.343Z,1.33
2023-01-11T03:58:20.212Z,1.20
2023-01-11T04:00:48.619Z,1.40
2023-01-11T04:03:15.839Z,1.23
2023-01-11T04:05:46.446Z,1.30
2023-01-11T04:08:13.334Z,1.40
2023-01-11T04:10:40.136Z,1.25
2023-01-11T04:13:06.806Z,1.38
2023-01-11T04:15:34.735Z,1.30
2023-01-11T04:18:07.562Z,1.25
2023-01-11T04:20:36.994Z,1.30
2023-01-11T04:23:07.639Z,1.30
2023-01-11T04:25:34.368Z,1.20
2023-01-11T04:28:04.219Z,1.20
2023-01-11T04:30:31.768Z,1.25
2023-01-11T04:33:01.746Z,1.27
2023-01-11T04:35:28.841Z,1.30
2023-01-11T04:37:57.186Z,1.10
2023-01-11T04:40:25.199Z,1.20
2023-01-11T04:42:51.924Z,1.40
2023-01-11T04:45:19.169Z,1.30
2023-01-11T04:47:45.769Z,1.20
2023-01-11T04:50:12.821Z,1.23
2023-01-11T04:52:41.493Z,1.30
2023-01-11T04:55:09.150Z,1.27
2023-01-11T04:57:36.169Z,1.40
2023-01-11T05:00:05.066Z,1.13
2023-01-11T05:02:31.650Z,1.20
2023-01-11T05:04:58.571Z,1.20
2023-01-11T05:07:25.486Z,1.33
2023-01-11T05:09:52.085Z,1.30
2023-01-11T05:12:18.711Z,1.20
2023-01-11T05:14:45.431Z,1.40
2023-01-11T05:17:16.135Z,1.10
2023-01-11T05:19:43.330Z,1.27
2023-01-11T05:22:10.509Z,1.10
2023-01-11T05:24:37.075Z,1.20
2023-01-11T05:27:04.927Z,1.20
2023-01-11T05:29:31.659Z,1.30
2023-01-11T05:31:58.256Z,1.13
2023-01-11T05:34:24.796Z,1.38
2023-01-11T05:36:51.476Z,1.20
2023-01-11T05:39:18.092Z,1.05
2023-01-11T05:41:44.981Z,1.30
2023-01-11T05:44:31.290Z,1.10
2023-01-11T05:46:58.149Z,1.30
2023-01-11T05:49:24.901Z,1.23
2023-01-11T05:51:51.470Z,1.20
2023-01-11T05:54:18.052Z,1.20
2023-01-11T05:56:47.570Z,1.30
2023-01-11T05:59:14.179Z,1.30
2023-01-11T06:01:40.796Z,1.20
2023-01-11T06:04:08.492Z,1.20
2023-01-11T06:06:35.966Z,1.20
2023-01-11T06:09:02.852Z,1.00
2023-01-11T06:11:29.400Z,1.10
2023-01-11T06:13:56.104Z,1.30
2023-01-11T06:16:23.639Z,1.10
2023-01-11T06:18:52.604Z,1.05
2023-01-11T06:21:20.158Z,1.20
2023-01-11T06:23:50.591Z,0.95
2023-01-11T06:26:20.066Z,1.00
2023-01-11T06:28:47.286Z,1.00
2023-01-11T06:31:17.073Z,1.00
2023-01-11T06:33:44.605Z,1.00
2023-01-11T06:36:13.501Z,1.30
2023-01-11T06:38:40.675Z,1.20
2023-01-11T06:41:08.464Z,1.10
2023-01-11T06:43:36.721Z,1.20
2023-01-11T06:46:04.236Z,1.50
2023-01-11T06:48:31.291Z,1.40
2023-01-11T06:50:59.078Z,2.00
2023-01-11T06:53:28.892Z,1.35
2023-01-11T06:55:57.587Z,1.30
2023-01-11T06:58:25.575Z,1.10
2023-01-11T07:00:53.911Z,1.30
2023-01-11T07:03:21.262Z,1.30
2023-01-11T07:05:48.025Z,1.30
2023-01-11T07:08:14.998Z,1.30
2023-01-11T07:10:43.641Z,1.25
2023-01-11T07:13:12.207Z,1.25
2023-01-11T07:15:39.173Z,1.30
2023-01-11T07:18:08.516Z,1.40
2023-01-11T07:20:35.091Z,1.60
2023-01-11T07:23:02.011Z,1.70
2023-01-11T07:25:29.548Z,1.70
2023-01-11T07:28:00.819Z,1.95
2023-01-11T07:30:29.612Z,2.00
2023-01-11T07:32:58.000Z,2.20
2023-01-11T07:35:24.874Z,2.20
2023-01-11T07:37:51.488Z,2.15
2023-01-11T07:40:18.622Z,2.40
2023-01-11T07:43:10.810Z,2.60
2023-01-11T07:45:47.238Z,2.80
2023-01-11T07:48:15.521Z,2.70
2023-01-11T07:50:44.724Z,2.60
2023-01-11T07:53:12.673Z,2.85
2023-01-11T07:55:40.536Z,3.00
2023-01-11T07:58:10.788Z,3.00
2023-01-11T08:00:37.416Z,2.70
2023-01-11T08:03:04.185Z,2.92
2023-01-11T08:05:30.838Z,2.95
2023-01-11T08:07:57.683Z,3.00
2023-01-11T08:10:24.817Z,2.83
2023-01-11T08:13:10.052Z,2.85
2023-01-11T08:15:36.916Z,2.92
2023-01-11T08:18:06.651Z,2.70
2023-01-11T08:20:33.838Z,3.40
2023-01-11T08:23:05.770Z,3.33
2023-01-11T08:25:33.328Z,3.40
2023-01-11T08:28:05.618Z,3.22
2023-01-11T08:30:32.373Z,3.08
2023-01-11T08:33:01.634Z,3.10
2023-01-11T08:35:28.521Z,3.15
2023-01-11T08:37:55.090Z,3.20
2023-01-11T08:40:24.032Z,3.20
2023-01-11T08:42:57.573Z,2.97
2023-01-11T08:45:24.982Z,2.65
2023-01-11T08:47:52.296Z,2.42
2023-01-11T08:50:22.098Z,3.08
2023-01-11T08:52:50.908Z,3.30
2023-01-11T08:55:18.023Z,3.03
2023-01-11T08:57:44.979Z,3.22
2023-01-11T09:00:12.304Z,2.72
2023-01-11T09:02:38.908Z,3.13
2023-01-11T09:05:06.013Z,2.90
2023-01-11T09:07:32.585Z,2.80
2023-01-11T09:09:59.220Z,2.78
2023-01-11T09:12:27.586Z,2.90
2023-01-11T09:14:54.186Z,2.35
2023-01-11T09:17:20.781Z,2.47
2023-01-11T09:19:47.331Z,2.78
2023-01-11T09:22:13.974Z,2.28
2023-01-11T09:24:40.577Z,2.80
2023-01-11T09:27:07.227Z,2.50
2023-01-11T09:29:37.052Z,2.58
2023-01-11T09:32:04.364Z,2.60
2023-01-11T09:34:31.004Z,2.60
2023-01-11T09:37:00.499Z,3.10
2023-01-11T09:39:28.727Z,2.72
2023-01-11T09:42:11.236Z,2.90
2023-01-11T09:45:24.553Z,2.80
2023-01-11T09:48:04.750Z,5.35
2023-01-11T09:50:41.139Z,3.15
2023-01-11T09:55:46.716Z,4.35
2023-01-11T09:58:24.093Z,3.58
2023-01-11T10:01:03.301Z,3.80
2023-01-11T10:03:58.389Z,2.60
2023-01-11T10:06:58.553Z,3.05
2023-01-11T10:18:22.038Z,2.38
2023-01-11T10:18:53.775Z,1.85
2023-01-11T10:21:32.547Z,2.40
2023-01-11T10:24:12.291Z,2.00
2023-01-11T10:26:40.336Z,2.13
2023-01-11T10:29:16.920Z,2.20
2023-01-11T10:32:09.548Z,2.20
2023-01-11T10:35:13.596Z,2.40
2023-01-11T10:38:04.917Z,2.67
2023-01-11T10:41:03.300Z,2.40
2023-01-11T10:43:35.186Z,2.50
2023-01-11T10:46:13.402Z,2.50
2023-01-11T10:48:42.574Z,2.65
2023-01-11T10:51:32.267Z,2.50
2023-01-11T10:54:14.230Z,2.60
2023-01-11T10:57:01.920Z,2.88
2023-01-11T10:59:49.781Z,2.78
2023-01-11T11:02:34.698Z,2.53
2023-01-11T11:05:05.357Z,2.50
2023-01-11T11:07:43.924Z,2.30
2023-01-11T11:10:32.247Z,2.58
2023-01-11T11:13:13.902Z,2.60
2023-01-11T11:15:55.208Z,2.28
2023-01-11T11:18:22.238Z,2.30
2023-01-11T11:20:48.875Z,2.30
2023-01-11T11:23:19.254Z,2.70
2023-01-11T11:25:57.413Z,2.17
2023-01-11T11:28:25.954Z,2.17
2023-01-11T11:30:55.915Z,2.33
2023-01-11T11:33:23.959Z,2.72
2023-01-11T11:36:07.918Z,2.78
2023-01-11T11:38:35.727Z,2.05
2023-01-11T11:41:17.243Z,2.35
2023-01-11T11:43:46.595Z,2.90
2023-01-11T11:46:19.450Z,2.10
2023-01-11T11:49:16.234Z,2.33
2023-01-11T11:51:45.674Z,1.87
2023-01-11T11:54:25.787Z,2.33
2023-01-11T11:56:53.779Z,2.30
2023-01-11T11:59:22.719Z,2.20
2023-01-11T12:01:57.766Z,2.40
2023-01-11T12:04:37.023Z,2.10
2023-01-11T12:07:23.972Z,2.60
2023-01-11T12:09:59.893Z,2.25
2023-01-11T12:12:29.221Z,2.00
2023-01-11T12:15:19.604Z,2.50
2023-01-11T12:17:46.791Z,2.30
2023-01-11T12:20:22.374Z,2.25
2023-01-11T12:22:50.063Z,2.45
2023-01-11T12:25:21.559Z,1.80
2023-01-11T12:28:15.359Z,2.28
2023-01-11T12:30:57.065Z,2.25
2023-01-11T12:33:26.450Z,2.53
2023-01-11T12:36:08.026Z,2.55
2023-01-11T12:39:04.984Z,2.53
2023-01-11T12:41:47.969Z,2.80
2023-01-11T12:44:48.213Z,2.75
2023-01-11T12:47:35.076Z,2.70
2023-01-11T12:53:28.805Z,2.88
2023-01-11T12:56:20.335Z,2.70
2023-01-11T12:58:56.218Z,2.80
2023-01-11T13:01:36.734Z,2.60
2023-01-11T13:04:57.253Z,2.90
2023-01-11T13:07:35.664Z,3.05
2023-01-11T13:10:20.807Z,3.08
2023-01-11T13:12:57.637Z,2.58
2023-01-11T13:15:53.515Z,3.00
2023-01-11T13:18:23.338Z,2.83
2023-01-11T13:21:28.401Z,3.00
2023-01-11T13:24:03.589Z,3.25
2023-01-11T13:26:40.218Z,2.90
2023-01-11T13:29:11.632Z,3.03
2023-01-11T13:31:38.994Z,3.20
2023-01-11T13:34:16.893Z,3.20
2023-01-11T13:36:48.716Z,2.83
2023-01-11T13:39:28.621Z,3.17
2023-01-11T13:42:03.412Z,3.42
2023-01-11T13:44:45.357Z,3.17
2023-01-11T13:47:25.606Z,3.13
2023-01-11T13:50:01.167Z,2.90
2023-01-11T13:52:27.814Z,2.95
2023-01-11T13:55:04.221Z,2.97
2023-01-11T13:57:55.091Z,2.80
2023-01-11T14:00:23.855Z,2.90
2023-01-11T14:03:05.820Z,2.95
2023-01-11T14:05:44.619Z,2.90
2023-01-11T14:08:11.069Z,2.63
2023-01-11T14:10:49.548Z,3.20
2023-01-11T14:13:53.188Z,2.70
2023-01-11T14:16:58.341Z,2.72
2023-01-11T14:19:50.816Z,2.67
2023-01-11T14:22:30.841Z,2.50
2023-01-11T14:25:02.700Z,2.35
2023-01-11T14:27:41.509Z,2.65
2023-01-11T14:30:16.631Z,2.70
2023-01-11T14:33:20.510Z,2.90
2023-01-11T14:35:59.694Z,3.33
2023-01-11T14:38:49.999Z,2.60
2023-01-11T14:41:45.884Z,2.97
2023-01-11T14:44:28.657Z,3.08
2023-01-11T14:47:28.636Z,2.53
2023-01-11T14:50:13.463Z,3.47
2023-01-11T14:52:42.201Z,2.75
2023-01-11T14:55:25.778Z,3.00
2023-01-11T14:58:02.425Z,3.28
2023-01-11T15:00:28.943Z,2.47
2023-01-11T15:03:01.215Z,3.00
2023-01-11T15:05:33.659Z,2.70
2023-01-11T15:08:15.629Z,2.65
2023-01-11T15:10:55.343Z,2.92
2023-01-11T15:13:25.551Z,3.15
2023-01-11T15:16:24.575Z,2.70
2023-01-11T15:18:51.428Z,3.25
2023-01-11T15:21:27.607Z,2.97
2023-01-11T15:23:57.577Z,3.00
2023-01-11T15:26:26.907Z,3.10
2023-01-11T15:28:58.478Z,3.30
2023-01-11T15:31:54.377Z,3.40
2023-01-11T15:34:20.892Z,2.97
2023-01-11T15:37:11.413Z,3.10
2023-01-11T15:39:56.610Z,3.10
2023-01-11T15:42:49.342Z,3.00
2023-01-11T15:45:18.942Z,3.47
2023-01-11T15:48:11.711Z,3.63
2023-01-11T15:50:57.010Z,2.50
2023-01-11T15:53:23.505Z,2.72
2023-01-11T15:56:28.533Z,2.97
2023-01-11T15:59:33.834Z,3.38
2023-01-11T16:02:15.625Z,2.97
2023-01-11T16:04:51.600Z,2.83
2023-01-11T16:07:46.602Z,3.17
2023-01-11T16:10:44.005Z,3.25
2023-01-11T16:16:05.281Z,2.80
2023-01-11T16:18:56.856Z,2.88
2023-01-11T16:21:34.040Z,3.13
2023-01-11T16:24:16.390Z,2.88
2023-01-11T16:26:43.928Z,3.22
2023-01-11T16:29:14.913Z,3.05
2023-01-11T16:31:58.741Z,3.28
2023-01-11T16:34:27.053Z,3.20
2023-01-11T16:36:53.607Z,3.50
2023-01-11T16:39:23.593Z,3.42
2023-01-11T16:41:55.908Z,3.25
2023-01-11T16:44:29.998Z,3.25
2023-01-11T16:47:16.808Z,2.90
2023-01-11T16:52:27.579Z,3.20
2023-01-11T16:54:56.072Z,3.60
2023-01-11T16:57:30.294Z,3.22
2023-01-11T17:00:03.327Z,3.22
2023-01-11T17:02:32.768Z,3.38
2023-01-11T17:04:59.480Z,3.92
2023-01-11T17:07:30.492Z,3.20
2023-01-11T17:10:21.112Z,3.22
2023-01-11T17:13:33.982Z,3.40
2023-01-11T17:16:08.319Z,3.38
2023-01-11T17:18:38.633Z,3.63
2023-01-11T17:21:06.775Z,3.28
2023-01-11T17:23:33.483Z,3.50
2023-01-11T17:26:01.303Z,3.33
2023-01-11T17:28:28.993Z,3.40
2023-01-11T17:30:55.817Z,3.70
2023-01-11T17:33:33.389Z,3.50
2023-01-11T17:36:01.717Z,4.00
2023-01-11T17:38:29.846Z,3.85
2023-01-11T17:40:57.721Z,3.78
2023-01-11T17:43:47.771Z,4.32
2023-01-11T17:46:27.404Z,4.43
2023-01-11T17:48:59.721Z,4.45
2023-01-11T17:51:28.721Z,3.55
2023-01-11T17:53:55.346Z,4.20
2023-01-11T17:56:41.529Z,4.00
2023-01-11T17:59:11.220Z,4.25
2023-01-11T18:01:38.179Z,4.32
2023-01-11T18:04:04.975Z,4.35
2023-01-11T18:06:40.406Z,4.53
2023-01-11T18:09:28.870Z,4.43
2023-01-11T18:12:33.904Z,4.38
2023-01-11T18:15:05.694Z,4.38
2023-01-11T18:17:32.235Z,4.75
2023-01-11T18:20:00.177Z,4.80
2023-01-11T18:22:40.387Z,4.40
2023-01-11T18:25:19.142Z,4.68
2023-01-11T18:27:46.949Z,4.97
2023-01-11T18:30:31.801Z,4.60
2023-01-11T18:33:01.913Z,4.35
2023-01-11T18:35:29.603Z,5.45
2023-01-11T18:37:56.381Z,5.03
2023-01-11T18:40:22.949Z,4.68
2023-01-11T18:42:52.078Z,4.68
2023-01-11T18:45:20.094Z,4.63
2023-01-11T18:47:46.732Z,4.82
2023-01-11T18:50:14.076Z,4.32
2023-01-11T18:52:40.971Z,4.45
2023-01-11T18:55:11.275Z,4.80
2023-01-11T18:57:37.849Z,4.80
2023-01-11T19:00:04.830Z,4.22
2023-01-11T19:05:20.915Z,4.53
2023-01-11T19:07:48.460Z,5.40
2023-01-11T19:10:17.070Z,6.35
2023-01-11T19:12:44.665Z,5.57
2023-01-11T19:15:12.559Z,5.35
2023-01-11T19:17:39.937Z,4.72
2023-01-11T19:20:09.096Z,3.85
2023-01-11T19:22:37.117Z,4.90
2023-01-11T19:25:04.727Z,4.20
2023-01-11T19:27:31.331Z,4.57
2023-01-11T19:29:58.181Z,4.43
2023-01-11T19:32:25.719Z,4.57
2023-01-11T19:34:53.253Z,4.95
2023-01-11T19:37:20.704Z,4.32
2023-01-11T19:39:47.322Z,4.60
2023-01-11T19:42:13.935Z,4.07
2023-01-11T19:44:40.486Z,4.70
2023-01-11T19:47:13.455Z,4.65
2023-01-11T19:49:41.497Z,5.00
2023-01-11T19:52:13.241Z,4.30
2023-01-11T19:54:44.499Z,4.20
2023-01-11T19:57:18.909Z,4.82
2023-01-11T19:59:46.098Z,4.28
2023-01-11T20:02:15.448Z,4.20
2023-01-11T20:04:42.279Z,4.22
2023-01-11T20:07:10.758Z,4.03
2023-01-11T20:09:37.884Z,4.38
2023-01-11T20:12:06.026Z,3.88
2023-01-11T20:14:33.857Z,4.00
2023-01-11T20:17:00.941Z,3.90
2023-01-11T20:19:27.808Z,3.72
2023-01-11T20:21:54.509Z,3.50
2023-01-11T20:24:27.859Z,3.72
2023-01-11T20:26:55.864Z,3.80
2023-01-11T20:29:22.509Z,3.67
2023-01-11T20:31:49.559Z,3.80
2023-01-11T20:34:17.472Z,4.20
2023-01-11T20:36:45.012Z,3.92
2023-01-11T20:39:11.959Z,4.32
2023-01-11T20:41:47.379Z,4.20
2023-01-11T20:44:18.382Z,3.63
2023-01-11T20:46:47.993Z,3.97
2023-01-11T20:49:16.738Z,4.32
2023-01-11T20:51:44.544Z,3.80
2023-01-11T20:54:11.917Z,3.88
2023-01-11T20:56:39.333Z,4.13
2023-01-11T20:59:07.851Z,4.10
2023-01-11T21:01:36.167Z,3.72
2023-01-11T21:04:08.213Z,4.10
2023-01-11T21:06:37.276Z,3.92
2023-01-11T21:09:05.061Z,4.05
2023-01-11T21:11:32.005Z,4.72
2023-01-11T21:13:59.949Z,4.97
2023-01-11T21:16:28.356Z,4.38
2023-01-11T21:18:57.087Z,4.40
2023-01-11T21:21:24.689Z,4.47
2023-01-11T21:23:58.589Z,4.57
2023-01-11T21:26:26.719Z,4.10
2023-01-11T21:28:59.374Z,4.40
2023-01-11T21:31:28.188Z,4.68
2023-01-11T21:33:55.174Z,4.93
2023-01-11T21:36:23.928Z,4.68
2023-01-11T21:38:51.088Z,4.75
2023-01-11T21:41:43.242Z,4.53
2023-01-11T21:44:11.334Z,4.07
2023-01-11T21:46:39.112Z,3.78
2023-01-11T21:49:06.219Z,4.35
2023-01-11T21:51:34.512Z,4.47
2023-01-11T21:54:08.237Z,4.07
2023-01-11T21:56:35.443Z,5.00
2023-01-11T21:59:02.137Z,4.00
2023-01-11T22:01:28.757Z,4.03
2023-01-11T22:03:55.914Z,4.20
2023-01-11T22:06:23.011Z,4.32
2023-01-11T22:08:49.730Z,4.03
2023-01-11T22:11:17.612Z,3.90
2023-01-11T22:13:44.499Z,4.93
2023-01-11T22:16:14.065Z,4.65
2023-01-11T22:18:41.258Z,4.00
2023-01-11T22:21:10.070Z,4.47
2023-01-11T22:23:37.271Z,4.15
2023-01-11T22:26:12.746Z,4.03
2023-01-11T22:28:58.692Z,4.20
2023-01-11T22:31:27.396Z,4.72
2023-01-11T22:33:55.346Z,3.60
2023-01-11T22:36:23.165Z,4.50
2023-01-11T22:38:50.045Z,3.67
2023-01-11T22:41:16.995Z,4.13
2023-01-11T22:43:44.659Z,4.35
2023-01-11T22:46:17.067Z,4.25
2023-01-11T22:48:43.835Z,4.03
2023-01-11T22:51:11.509Z,3.75
2023-01-11T22:53:39.705Z,4.35
2023-01-11T22:56:10.379Z,4.10
2023-01-11T22:58:37.232Z,3.60
2023-01-11T23:01:14.101Z,3.70
2023-01-11T23:03:41.667Z,4.13
2023-01-11T23:06:09.468Z,3.30
2023-01-11T23:08:43.844Z,4.00
2023-01-11T23:11:35.481Z,3.42
2023-01-11T23:14:08.388Z,4.05
2023-01-11T23:16:36.271Z,3.42
2023-01-11T23:19:05.223Z,3.92
2023-01-11T23:21:31.980Z,3.28
2023-01-11T23:24:01.429Z,3.55
2023-01-11T23:26:28.071Z,3.08
2023-01-11T23:28:54.683Z,3.47
2023-01-11T23:31:23.178Z,4.15
2023-01-11T23:33:53.237Z,3.38
2023-01-11T23:36:21.566Z,3.03
2023-01-11T23:38:48.625Z,3.35
2023-01-11T23:41:36.659Z,3.40
2023-01-11T23:44:11.666Z,3.42
2023-01-11T23:46:57.802Z,3.20
2023-01-11T23:49:25.095Z,3.17
2023-01-11T23:51:52.382Z,3.22
2023-01-11T23:54:19.143Z,2.65
2023-01-11T23:56:46.067Z,2.75
2023-01-11T23:59:12.741Z,3.70
